Time;durP1;ratioP1;P1;durP2;ratioP2;P2;SDS_P1;SDS_P2;PMS_P1;PMS_P2;Temp;Humidity;BMP_temperature;BMP_pressure;BME280_temperature;BME280_humidity;BME280_pressure;Samples;Min_cycle;Max_cycle;Signal;HPM_P1;HPM_P2
2023/06/17 00:00:56;;;;;;;4.83;3.07;;;18.10;58.10;;;;;;5004641;28;20235;-64
2023/06/17 00:03:24;;;;;;;4.13;2.60;;;18.00;56.80;;;;;;5005485;28;20643;-65
2023/06/17 00:05:54;;;;;;;5.70;2.78;;;17.90;57.40;;;;;;5004625;28;20197;-67
2023/06/17 00:08:21;;;;;;;4.35;2.60;;;17.90;58.50;;;;;;5004931;28;20198;-66
2023/06/17 00:10:48;;;;;;;3.17;2.63;;;17.70;59.30;;;;;;5024146;28;20203;-69
2023/06/17 00:13:19;;;;;;;4.35;3.00;;;17.70;58.00;;;;;;5022057;28;20265;-66
2023/06/17 00:15:50;;;;;;;3.07;2.67;;;17.50;60.00;;;;;;5014403;28;20200;-65
2023/06/17 00:18:19;;;;;;;3.70;2.90;;;17.40;61.30;;;;;;5010330;28;20748;-66
2023/06/17 00:20:48;;;;;;;4.13;3.03;;;17.50;60.00;;;;;;5016495;28;20215;-64
2023/06/17 00:23:15;;;;;;;3.47;2.80;;;17.60;61.20;;;;;;5010142;28;20712;-64
2023/06/17 00:25:42;;;;;;;3.37;2.70;;;17.10;63.30;;;;;;5011082;28;20231;-65
2023/06/17 00:28:10;;;;;;;4.60;2.77;;;17.00;64.30;;;;;;5017022;28;20255;-65
2023/06/17 00:30:37;;;;;;;5.90;3.60;;;16.90;62.00;;;;;;5005009;28;20204;-65
2023/06/17 00:33:04;;;;;;;3.60;3.30;;;16.90;62.60;;;;;;5004841;28;20213;-66
2023/06/17 00:35:32;;;;;;;3.53;2.93;;;17.10;64.00;;;;;;5007990;28;20197;-66
2023/06/17 00:38:00;;;;;;;3.23;2.60;;;16.80;63.80;;;;;;5008889;28;20251;-66
2023/06/17 00:40:27;;;;;;;3.07;2.77;;;16.80;64.80;;;;;;5027187;28;20219;-66
2023/06/17 00:42:57;;;;;;;4.10;2.93;;;17.10;65.20;;;;;;5007549;28;20188;-66
2023/06/17 00:45:24;;;;;;;4.82;3.15;;;17.30;65.00;;;;;;5024325;28;20200;-65
2023/06/17 00:47:52;;;;;;;3.20;2.90;;;17.50;66.20;;;;;;5025315;28;20261;-66
2023/06/17 00:50:19;;;;;;;4.15;3.08;;;17.50;64.80;;;;;;5007668;28;20189;-67
2023/06/17 00:52:52;;;;;;;4.40;2.83;;;17.60;67.70;;;;;;5008225;28;20224;-66
2023/06/17 00:55:21;;;;;;;4.10;2.85;;;17.60;66.00;;;;;;5006667;28;21033;-66
2023/06/17 00:57:48;;;;;;;3.75;2.95;;;17.50;66.40;;;;;;5004444;28;20196;-66
2023/06/17 01:00:15;;;;;;;5.32;2.88;;;17.50;66.20;;;;;;5009039;28;20645;-64
2023/06/17 01:02:44;;;;;;;3.55;2.95;;;17.50;67.50;;;;;;5004342;28;20274;-61
2023/06/17 01:05:16;;;;;;;4.40;3.25;;;17.60;67.30;;;;;;5010538;22;20236;-59
2023/06/17 01:07:45;;;;;;;4.18;2.78;;;17.70;68.50;;;;;;5004015;28;20688;-60
2023/06/17 01:10:30;;;;;;;8.07;3.38;;;17.60;66.60;;;;;;4997070;28;20208;-60
2023/06/17 01:13:03;;;;;;;5.47;2.95;;;17.60;68.60;;;;;;4998048;28;20189;-60
2023/06/17 01:15:34;;;;;;;3.80;3.25;;;17.50;68.20;;;;;;4998637;28;20728;-59
2023/06/17 01:18:07;;;;;;;3.50;3.00;;;17.10;67.90;;;;;;5003899;28;20196;-60
2023/06/17 01:20:35;;;;;;;3.90;3.47;;;16.30;69.70;;;;;;5004976;28;20192;-60
2023/06/17 01:23:05;;;;;;;6.80;3.37;;;16.00;68.20;;;;;;4993741;28;20190;-59
2023/06/17 01:25:34;;;;;;;4.73;4.20;;;16.00;69.80;;;;;;5002967;28;20197;-60
2023/06/17 01:28:19;;;;;;;6.83;3.30;;;16.30;70.80;;;;;;5005566;28;20284;-59
2023/06/17 01:30:54;;;;;;;6.27;3.63;;;16.30;71.40;;;;;;5001120;28;20192;-59
2023/06/17 01:33:22;;;;;;;4.50;3.50;;;16.40;72.10;;;;;;5002872;28;20252;-59
2023/06/17 01:36:13;;;;;;;4.13;3.23;;;16.50;71.40;;;;;;5005501;28;20197;-61
2023/06/17 01:38:48;;;;;;;5.57;3.23;;;16.60;72.00;;;;;;5002545;28;20734;-59
2023/06/17 01:41:29;;;;;;;7.13;3.07;;;16.60;72.10;;;;;;5004837;28;20199;-59
2023/06/17 01:43:57;;;;;;;3.73;3.30;;;16.70;72.40;;;;;;5011515;28;20209;-59
2023/06/17 01:46:25;;;;;;;6.10;3.73;;;16.20;73.70;;;;;;5005037;28;20231;-60
2023/06/17 01:48:54;;;;;;;4.47;3.60;;;15.90;73.70;;;;;;5005378;28;20224;-59
2023/06/17 01:51:22;;;;;;;4.40;3.07;;;15.80;73.70;;;;;;5003028;28;20664;-60
2023/06/17 01:53:50;;;;;;;6.63;3.77;;;15.70;74.20;;;;;;5003639;28;20205;-59
2023/06/17 01:56:17;;;;;;;4.73;3.60;;;15.80;76.00;;;;;;5000736;28;20185;-59
2023/06/17 01:58:44;;;;;;;5.13;3.67;;;16.00;75.50;;;;;;5004217;28;20204;-59
2023/06/17 02:01:11;;;;;;;6.07;4.00;;;16.30;75.20;;;;;;5004888;28;20218;-60
2023/06/17 02:03:42;;;;;;;5.90;3.83;;;16.00;74.90;;;;;;4992661;28;20775;-60
2023/06/17 02:06:09;;;;;;;6.73;3.53;;;15.70;76.40;;;;;;4995438;28;20225;-60
2023/06/17 02:08:37;;;;;;;4.23;3.57;;;15.50;76.80;;;;;;4987667;28;20552;-60
2023/06/17 02:11:04;;;;;;;6.07;3.80;;;15.70;79.60;;;;;;4987156;28;20638;-59
2023/06/17 02:13:31;;;;;;;7.20;4.33;;;15.90;77.10;;;;;;4995904;28;20201;-60
2023/06/17 02:15:58;;;;;;;5.47;4.27;;;15.80;77.20;;;;;;4995066;28;20196;-60
2023/06/17 02:18:25;;;;;;;5.50;3.43;;;15.80;77.40;;;;;;5004698;28;20627;-59
2023/06/17 02:20:52;;;;;;;4.93;3.67;;;15.80;78.30;;;;;;4988847;28;20247;-60
2023/06/17 02:23:19;;;;;;;9.53;4.00;;;15.80;77.80;;;;;;4984041;28;20697;-60
2023/06/17 02:25:46;;;;;;;4.13;3.73;;;15.70;78.20;;;;;;4988957;28;20201;-60
2023/06/17 02:28:13;;;;;;;4.33;3.57;;;15.80;78.70;;;;;;4993748;28;20596;-60
2023/06/17 02:30:41;;;;;;;4.40;3.57;;;15.90;81.50;;;;;;4995061;28;20197;-60
2023/06/17 02:33:08;;;;;;;4.90;3.37;;;16.10;79.50;;;;;;4998777;28;20185;-61
2023/06/17 02:35:35;;;;;;;6.07;4.30;;;16.20;78.00;;;;;;4988605;28;20195;-56
2023/06/17 02:38:03;;;;;;;4.63;3.37;;;16.10;78.80;;;;;;4986842;28;20189;-57
2023/06/17 02:40:30;;;;;;;4.67;3.70;;;16.10;80.70;;;;;;4993953;28;20198;-55
2023/06/17 02:42:57;;;;;;;5.57;3.83;;;16.10;79.40;;;;;;4989434;28;20198;-54
2023/06/17 02:45:24;;;;;;;8.70;4.10;;;15.80;80.20;;;;;;4993041;28;20209;-53
2023/06/17 02:47:51;;;;;;;6.40;3.80;;;15.30;79.80;;;;;;4993128;28;20689;-55
2023/06/17 02:50:23;;;;;;;4.77;3.83;;;15.10;84.00;;;;;;4984850;28;20190;-55
2023/06/17 02:52:55;;;;;;;7.80;3.97;;;14.70;81.60;;;;;;4986746;28;20292;-55
2023/06/17 02:55:27;;;;;;;5.03;4.00;;;14.70;83.40;;;;;;4993575;28;20688;-56
2023/06/17 02:57:55;;;;;;;5.30;4.40;;;14.80;85.20;;;;;;4992892;28;20224;-55
2023/06/17 03:00:23;;;;;;;6.43;4.67;;;14.60;84.70;;;;;;4986306;28;20297;-55
2023/06/17 03:02:51;;;;;;;4.67;3.60;;;14.50;85.80;;;;;;4992211;28;20213;-56
2023/06/17 03:05:18;;;;;;;7.20;4.20;;;14.50;84.90;;;;;;4969172;28;20297;-56
2023/06/17 03:07:46;;;;;;;6.37;4.50;;;14.60;87.80;;;;;;4995039;28;20738;-55
2023/06/17 03:10:15;;;;;;;8.47;4.43;;;14.70;87.00;;;;;;4988520;28;20259;-55
2023/06/17 03:12:46;;;;;;;5.70;3.83;;;14.60;88.60;;;;;;4986987;28;20228;-57
2023/06/17 03:15:17;;;;;;;6.37;4.07;;;14.50;89.90;;;;;;4993168;28;20542;-56
2023/06/17 03:17:44;;;;;;;5.30;3.70;;;14.50;89.30;;;;;;4990092;28;20252;-55
2023/06/17 03:20:12;;;;;;;5.43;4.57;;;14.50;89.40;;;;;;4988682;28;20629;-56
2023/06/17 03:22:40;;;;;;;15.23;9.47;;;14.50;88.80;;;;;;4991541;28;20219;-56
2023/06/17 03:25:07;;;;;;;16.83;7.83;;;14.70;89.00;;;;;;4977544;28;20201;-56
2023/06/17 03:27:35;;;;;;;14.33;8.67;;;14.80;89.70;;;;;;4991327;28;20779;-55
2023/06/17 03:30:03;;;;;;;16.47;8.67;;;15.10;89.50;;;;;;4987323;28;20189;-56
2023/06/17 03:32:30;;;;;;;12.13;5.73;;;15.40;89.30;;;;;;4995027;28;20631;-56
2023/06/17 03:34:59;;;;;;;10.10;6.73;;;15.60;90.30;;;;;;4984509;28;20197;-56
2023/06/17 03:37:26;;;;;;;8.47;5.57;;;15.60;88.70;;;;;;4983607;28;20197;-56
2023/06/17 03:39:53;;;;;;;10.17;6.40;;;15.70;88.80;;;;;;4985435;28;20194;-57
2023/06/17 03:42:20;;;;;;;17.87;10.00;;;15.70;89.00;;;;;;4982191;28;20565;-55
2023/06/17 03:44:47;;;;;;;10.77;7.20;;;16.00;89.00;;;;;;4968980;28;20198;-56
2023/06/17 03:47:15;;;;;;;13.53;8.80;;;16.10;89.50;;;;;;4978829;28;20216;-56
2023/06/17 03:49:44;;;;;;;17.47;12.03;;;16.20;87.50;;;;;;4985392;28;20225;-57
2023/06/17 03:52:11;;;;;;;7.83;4.70;;;16.30;88.70;;;;;;4983638;28;20553;-56
2023/06/17 03:54:39;;;;;;;5.60;4.60;;;16.60;87.90;;;;;;4973877;28;20205;-57
2023/06/17 03:57:06;;;;;;;6.03;4.32;;;16.60;88.80;;;;;;4982273;28;20198;-55
2023/06/17 03:59:34;;;;;;;9.73;6.40;;;16.80;87.10;;;;;;4993659;28;20201;-54
2023/06/17 04:02:02;;;;;;;6.53;4.57;;;17.00;87.30;;;;;;4987777;28;20201;-53
2023/06/17 04:04:34;;;;;;;7.45;5.30;;;17.20;88.20;;;;;;4985986;28;20241;-55
2023/06/17 04:07:02;;;;;;;8.98;4.57;;;17.30;86.70;;;;;;4992552;28;20197;-55
2023/06/17 04:09:32;;;;;;;9.23;5.47;;;17.60;86.80;;;;;;4979634;28;20684;-54
2023/06/17 04:11:59;;;;;;;8.73;6.10;;;17.90;86.60;;;;;;4992040;28;20251;-55
2023/06/17 04:14:25;;;;;;;7.05;4.60;;;18.20;85.80;;;;;;4997543;28;20204;-54
2023/06/17 04:16:53;;;;;;;7.38;4.45;;;18.60;84.60;;;;;;4991786;28;20213;-54
2023/06/17 04:19:20;;;;;;;6.15;4.28;;;18.00;83.50;;;;;;4992040;28;20196;-54
2023/06/17 04:21:47;;;;;;;5.30;4.13;;;17.80;85.90;;;;;;4982168;28;20204;-54
2023/06/17 04:24:14;;;;;;;7.00;4.30;;;18.20;84.80;;;;;;4972418;28;20221;-54
2023/06/17 04:26:44;;;;;;;7.70;4.60;;;18.80;83.50;;;;;;4991152;28;20197;-54
2023/06/17 04:29:14;;;;;;;6.63;4.72;;;18.60;83.20;;;;;;4967025;28;20704;-55
2023/06/17 04:31:45;;;;;;;7.95;4.57;;;18.40;84.40;;;;;;4983233;28;20193;-55
2023/06/17 04:34:21;;;;;;;7.47;4.88;;;19.30;85.70;;;;;;4987533;28;20197;-54
2023/06/17 04:36:57;;;;;;;6.40;4.65;;;20.00;83.40;;;;;;4978867;28;20228;-55
2023/06/17 04:39:28;;;;;;;6.07;4.10;;;20.50;82.90;;;;;;4978361;28;20289;-55
2023/06/17 04:41:56;;;;;;;5.88;4.22;;;19.30;80.50;;;;;;4964791;28;20285;-54
2023/06/17 04:44:24;;;;;;;8.65;5.43;;;19.00;80.50;;;;;;4970766;28;20194;-55
2023/06/17 04:46:53;;;;;;;7.72;5.05;;;19.80;82.90;;;;;;4978457;28;20206;-54
2023/06/17 04:49:20;;;;;;;6.00;4.95;;;21.10;81.10;;;;;;4983238;28;20571;-55
2023/06/17 04:51:48;;;;;;;5.80;4.53;;;21.80;80.80;;;;;;4980510;28;20194;-55
2023/06/17 04:54:15;;;;;;;5.97;3.75;;;22.00;78.40;;;;;;4981281;28;20197;-55
2023/06/17 04:56:43;;;;;;;8.27;4.90;;;22.20;76.90;;;;;;4982242;28;20519;-55
2023/06/17 04:59:10;;;;;;;6.90;4.22;;;23.00;77.30;;;;;;5006497;28;20197;-54
2023/06/17 05:01:37;;;;;;;6.30;4.10;;;24.00;74.70;;;;;;4965672;28;20206;-53
2023/06/17 05:04:05;;;;;;;8.07;4.72;;;24.80;71.10;;;;;;4986896;28;20303;-54
2023/06/17 05:06:32;;;;;;;6.30;4.35;;;24.00;71.40;;;;;;4982115;28;20205;-53
2023/06/17 05:09:00;;;;;;;7.82;5.13;;;24.80;69.20;;;;;;4966998;28;20235;-54
2023/06/17 05:11:27;;;;;;;13.38;9.20;;;25.30;67.90;;;;;;4981296;28;20661;-54
2023/06/17 05:13:54;;;;;;;16.63;10.25;;;26.10;66.60;;;;;;4987817;28;20194;-54
2023/06/17 05:16:21;;;;;;;13.90;9.25;;;26.50;65.80;;;;;;4981516;28;20190;-54
2023/06/17 05:18:49;;;;;;;12.88;8.07;;;26.40;62.50;;;;;;4984173;28;20193;-54
2023/06/17 05:21:21;;;;;;;8.48;6.15;;;27.00;62.90;;;;;;4978809;28;20666;-54
2023/06/17 05:23:50;;;;;;;6.00;5.00;;;27.50;61.40;;;;;;4974872;28;20783;-54
2023/06/17 05:26:17;;;;;;;6.47;4.80;;;27.80;61.20;;;;;;4981518;28;20677;-54
2023/06/17 05:28:44;;;;;;;8.23;4.10;;;28.30;59.80;;;;;;4979213;28;20736;-54
2023/06/17 05:31:11;;;;;;;7.30;4.70;;;28.70;58.10;;;;;;4975812;28;20209;-54
2023/06/17 05:33:39;;;;;;;5.03;4.10;;;28.40;58.30;;;;;;4980518;28;20239;-53
2023/06/17 05:36:06;;;;;;;5.20;3.83;;;28.70;58.50;;;;;;4980549;28;20269;-54
2023/06/17 05:38:33;;;;;;;5.32;4.43;;;29.10;54.10;;;;;;4976351;28;20193;-53
2023/06/17 05:41:01;;;;;;;12.45;4.10;;;27.90;54.90;;;;;;4986470;28;20815;-53
2023/06/17 05:43:30;;;;;;;5.03;3.75;;;28.60;56.40;;;;;;4989663;28;20661;-53
2023/06/17 05:45:58;;;;;;;6.43;4.15;;;29.50;55.30;;;;;;4985583;28;20564;-54
2023/06/17 05:48:25;;;;;;;7.70;4.30;;;30.00;54.70;;;;;;4986408;28;20611;-54
2023/06/17 05:50:52;;;;;;;4.57;3.88;;;30.50;77.30;;;;;;4985724;28;20201;-53
2023/06/17 05:53:19;;;;;;;5.40;3.80;;;30.40;51.90;;;;;;4986128;28;20191;-52
2023/06/17 05:55:46;;;;;;;7.20;3.83;;;30.80;51.90;;;;;;4988756;28;20738;-53
2023/06/17 05:58:13;;;;;;;7.65;3.83;;;31.20;52.20;;;;;;4988205;28;20248;-53
2023/06/17 06:00:48;;;;;;;4.90;3.75;;;31.90;49.80;;;;;;4987541;28;21386;-53
2023/06/17 06:03:15;;;;;;;5.30;3.78;;;32.30;48.90;;;;;;4989223;28;20224;-53
2023/06/17 06:05:42;;;;;;;8.65;4.63;;;33.10;48.20;;;;;;4987828;28;20193;-53
2023/06/17 06:08:09;;;;;;;5.47;3.88;;;32.10;46.80;;;;;;4985120;28;20229;-52
2023/06/17 06:10:36;;;;;;;4.25;3.60;;;32.20;46.60;;;;;;4979362;28;20216;-53
2023/06/17 06:13:04;;;;;;;4.97;4.07;;;32.40;47.90;;;;;;4983810;28;20275;-52
2023/06/17 06:15:32;;;;;;;5.85;4.38;;;32.10;47.20;;;;;;4983035;28;20217;-53
2023/06/17 06:17:59;;;;;;;5.00;3.53;;;31.30;47.10;;;;;;4987108;28;20653;-52
2023/06/17 06:20:28;;;;;;;5.40;4.10;;;31.60;45.90;;;;;;4986966;28;20670;-54
2023/06/17 06:22:56;;;;;;;5.72;4.03;;;31.70;45.50;;;;;;4963901;28;20237;-53
2023/06/17 06:25:23;;;;;;;5.18;3.72;;;33.30;45.80;;;;;;4982003;28;20206;-54
2023/06/17 06:27:50;;;;;;;4.60;3.55;;;34.30;43.10;;;;;;4980625;28;20698;-54
2023/06/17 06:30:19;;;;;;;4.53;4.10;;;34.60;44.30;;;;;;4981271;28;20194;-54
2023/06/17 06:32:51;;;;;;;6.00;4.35;;;34.50;42.70;;;;;;4991681;28;20227;-53
2023/06/17 06:35:20;;;;;;;7.15;4.10;;;33.50;42.20;;;;;;4981551;28;20286;-53
2023/06/17 06:37:48;;;;;;;5.88;4.00;;;31.30;39.90;;;;;;4978456;28;20372;-53
2023/06/17 06:40:17;;;;;;;6.05;4.10;;;30.90;41.90;;;;;;4978321;28;20261;-53
2023/06/17 06:42:46;;;;;;;5.15;3.83;;;32.70;43.50;;;;;;4977039;28;20201;-53
2023/06/17 06:45:39;;;;;;;3.58;3.00;;;34.10;42.90;;;;;;4990251;28;20206;-53
2023/06/17 06:48:06;;;;;;;6.97;4.10;;;33.70;42.30;;;;;;4990451;28;20217;-53
2023/06/17 06:50:34;;;;;;;3.67;3.28;;;34.30;63.20;;;;;;4977896;28;21028;-53
2023/06/17 06:53:01;;;;;;;4.20;3.60;;;34.20;36.80;;;;;;4982904;28;20306;-53
2023/06/17 06:55:29;;;;;;;4.55;3.20;;;33.00;39.90;;;;;;4993578;28;20194;-53
2023/06/17 06:57:56;;;;;;;4.28;3.60;;;34.90;40.20;;;;;;4984854;28;20205;-53
2023/06/17 07:00:24;;;;;;;7.25;3.38;;;35.50;38.60;;;;;;4986873;28;20202;-53
2023/06/17 07:02:51;;;;;;;3.92;3.35;;;34.00;33.70;;;;;;4987324;28;20264;-53
2023/06/17 07:05:22;;;;;;;4.63;3.10;;;31.70;34.60;;;;;;4983783;28;20249;-53
2023/06/17 07:07:53;;;;;;;5.75;3.60;;;34.10;39.70;;;;;;4981731;28;20220;-53
2023/06/17 07:10:20;;;;;;;3.53;2.95;;;36.00;35.20;;;;;;4982538;28;20618;-53
2023/06/17 07:12:48;;;;;;;3.92;3.45;;;35.00;31.90;;;;;;4960672;28;20596;-53
2023/06/17 07:15:17;;;;;;;6.32;3.50;;;34.80;33.80;;;;;;4988073;28;20190;-52
2023/06/17 07:17:45;;;;;;;8.95;3.55;;;35.00;35.90;;;;;;4987339;28;20190;-53
2023/06/17 07:20:13;;;;;;;4.82;3.65;;;33.50;33.80;;;;;;4986721;28;20194;-53
2023/06/17 07:22:40;;;;;;;7.18;3.35;;;33.60;32.70;;;;;;4988619;28;20193;-53
2023/06/17 07:25:07;;;;;;;6.07;3.20;;;34.70;35.90;;;;;;5003090;28;20194;-53
2023/06/17 07:27:34;;;;;;;3.92;3.20;;;36.60;34.70;;;;;;4989350;28;20197;-53
2023/06/17 07:30:01;;;;;;;6.30;3.28;;;34.50;29.50;;;;;;4986385;28;20307;-52
2023/06/17 07:32:29;;;;;;;5.97;3.20;;;36.30;32.40;;;;;;4984908;28;20198;-54
2023/06/17 07:34:56;;;;;;;5.15;3.08;;;37.90;31.70;;;;;;4987554;28;20205;-54
2023/06/17 07:37:24;;;;;;;5.28;2.80;;;38.50;28.70;;;;;;4980131;28;20213;-54
2023/06/17 07:39:51;;;;;;;4.72;2.90;;;39.30;29.10;;;;;;4990855;28;20198;-54
2023/06/17 07:42:18;;;;;;;8.85;5.32;;;38.40;28.90;;;;;;4976617;28;20202;-54
2023/06/17 07:44:45;;;;;;;9.05;6.38;;;37.70;29.20;;;;;;4983309;28;20201;-54
2023/06/17 07:47:15;;;;;;;8.57;7.50;;;38.20;29.10;;;;;;4982424;28;20237;-55
2023/06/17 07:49:43;;;;;;;6.97;5.28;;;37.20;27.00;;;;;;4984464;28;20224;-54
2023/06/17 07:52:10;;;;;;;5.70;4.25;;;35.90;27.60;;;;;;4995320;28;20348;-54
2023/06/17 07:54:37;;;;;;;4.70;3.92;;;35.70;27.20;;;;;;4974395;28;20209;-54
2023/06/17 07:57:05;;;;;;;4.65;3.50;;;36.00;28.10;;;;;;4970466;28;20262;-54
2023/06/17 07:59:32;;;;;;;4.65;3.60;;;37.20;27.70;;;;;;4990367;28;20201;-54
2023/06/17 08:01:59;;;;;;;4.93;3.17;;;36.80;27.00;;;;;;4992772;28;20873;-54
2023/06/17 08:04:26;;;;;;;5.80;3.15;;;37.60;26.50;;;;;;4986536;28;20237;-54
2023/06/17 08:06:53;;;;;;;3.42;3.10;;;37.50;26.40;;;;;;4989615;28;20577;-54
2023/06/17 08:09:20;;;;;;;5.07;3.00;;;36.50;26.70;;;;;;4987952;28;20267;-54
2023/06/17 08:11:47;;;;;;;6.40;2.80;;;36.70;25.30;;;;;;4982822;28;20249;-54
2023/06/17 08:14:15;;;;;;;5.95;3.10;;;36.30;26.90;;;;;;4982104;28;20197;-54
2023/06/17 08:16:43;;;;;;;4.07;3.10;;;36.30;44.10;;;;;;4990591;28;20197;-54
2023/06/17 08:19:10;;;;;;;4.13;2.90;;;36.30;25.20;;;;;;4996403;28;20189;-53
2023/06/17 08:21:37;;;;;;;3.75;2.88;;;36.60;25.10;;;;;;4982634;28;20620;-54
2023/06/17 08:24:21;;;;;;;4.82;3.10;;;37.30;25.40;;;;;;4989156;28;20219;-54
2023/06/17 08:26:49;;;;;;;3.03;2.67;;;36.10;23.60;;;;;;4973768;28;20213;-54
2023/06/17 08:29:17;;;;;;;2.95;2.65;;;35.30;24.40;;;;;;4989299;28;20213;-54
2023/06/17 08:31:47;;;;;;;4.20;3.20;;;35.70;24.10;;;;;;4983456;28;20272;-54
2023/06/17 08:34:14;;;;;;;3.28;2.53;;;34.80;23.80;;;;;;4986082;28;20252;-53
2023/06/17 08:36:45;;;;;;;4.72;2.67;;;34.90;42.30;;;;;;4984832;28;20204;-54
2023/06/17 08:39:12;;;;;;;2.70;2.45;;;35.60;42.60;;;;;;4979232;28;20206;-54
2023/06/17 08:41:41;;;;;;;3.35;2.97;;;36.10;23.30;;;;;;4986806;28;20209;-54
2023/06/17 08:44:11;;;;;;;3.15;2.67;;;35.90;23.00;;;;;;4989905;28;20213;-55
2023/06/17 08:46:39;;;;;;;2.85;2.50;;;35.40;22.50;;;;;;4988581;28;20212;-54
2023/06/17 08:49:07;;;;;;;6.63;3.03;;;35.40;22.70;;;;;;4985642;28;20668;-54
2023/06/17 08:51:35;;;;;;;3.72;2.80;;;35.90;23.00;;;;;;4980917;28;20197;-51
2023/06/17 08:54:03;;;;;;;3.42;2.88;;;36.10;21.20;;;;;;4984173;28;20693;-54
2023/06/17 08:56:30;;;;;;;3.97;3.10;;;36.70;21.80;;;;;;4982396;28;20197;-54
2023/06/17 08:58:57;;;;;;;7.38;2.72;;;36.80;20.80;;;;;;4982976;28;20201;-54
2023/06/17 09:01:25;;;;;;;9.18;2.60;;;36.40;21.10;;;;;;4982909;28;20211;-54
2023/06/17 09:03:54;;;;;;;3.25;2.60;;;36.30;21.50;;;;;;4985476;28;20244;-54
2023/06/17 09:06:23;;;;;;;4.53;3.00;;;36.20;20.70;;;;;;4980482;28;20205;-54
2023/06/17 09:08:54;;;;;;;3.72;2.97;;;34.60;19.90;;;;;;4988129;28;20700;-54
2023/06/17 09:11:40;;;;;;;3.35;2.97;;;34.40;21.00;;;;;;4986252;28;20541;-54
2023/06/17 09:14:06;;;;;;;5.38;4.18;;;34.10;21.20;;;;;;4979327;28;20194;-54
2023/06/17 09:16:34;;;;;;;5.75;4.10;;;34.00;20.80;;;;;;4980010;28;20281;-54
2023/06/17 09:19:04;;;;;;;4.57;3.72;;;35.20;20.20;;;;;;4984750;28;20197;-54
2023/06/17 09:21:31;;;;;;;7.22;3.50;;;34.30;20.40;;;;;;4984569;28;20196;-54
2023/06/17 09:24:00;;;;;;;5.45;2.97;;;34.50;20.90;;;;;;4982929;28;20213;-54
2023/06/17 09:26:32;;;;;;;3.85;3.15;;;35.60;19.50;;;;;;4989211;28;20194;-54
2023/06/17 09:29:05;;;;;;;4.22;2.88;;;36.40;27.70;;;;;;4982526;28;20227;-54
2023/06/17 09:31:33;;;;;;;3.65;3.00;;;36.10;18.10;;;;;;4984588;28;20228;-54
2023/06/17 09:34:04;;;;;;;13.38;5.60;;;35.80;19.70;;;;;;4982255;28;20193;-54
2023/06/17 09:36:30;;;;;;;9.60;7.85;;;35.90;17.80;;;;;;4979363;28;20248;-54
2023/06/17 09:38:58;;;;;;;10.23;9.13;;;35.10;18.00;;;;;;4982142;28;20190;-54
2023/06/17 09:41:26;;;;;;;9.88;5.95;;;35.30;18.20;;;;;;4983685;28;20189;-54
2023/06/17 09:43:54;;;;;;;9.65;5.30;;;36.20;17.00;;;;;;4973895;28;20519;-54
2023/06/17 09:46:29;;;;;;;10.40;5.03;;;36.50;16.50;;;;;;4985407;28;20247;-54
2023/06/17 09:48:57;;;;;;;6.18;4.38;;;36.90;16.00;;;;;;4984429;28;20205;-54
2023/06/17 09:51:25;;;;;;;3.97;3.47;;;37.00;16.10;;;;;;4992046;28;20189;-54
2023/06/17 09:53:55;;;;;;;3.38;3.08;;;36.80;14.50;;;;;;4980048;28;20197;-54
2023/06/17 09:56:23;;;;;;;3.42;3.13;;;35.70;16.60;;;;;;4983075;28;20288;-54
2023/06/17 09:58:53;;;;;;;3.58;3.28;;;33.60;16.60;;;;;;4981334;28;20201;-54
2023/06/17 10:01:20;;;;;;;3.70;2.70;;;33.40;17.50;;;;;;4974870;28;20721;-54
2023/06/17 10:03:47;;;;;;;4.15;3.33;;;35.00;17.30;;;;;;4972518;28;21407;-53
2023/06/17 10:06:19;;;;;;;9.45;2.78;;;35.30;14.80;;;;;;4979810;28;20275;-54
2023/06/17 10:08:52;;;;;;;3.60;2.85;;;35.40;15.20;;;;;;4980594;28;20276;-54
2023/06/17 10:11:20;;;;;;;5.13;2.90;;;36.50;15.00;;;;;;4980211;28;20553;-52
2023/06/17 10:14:01;;;;;;;2.50;2.30;;;37.30;13.80;;;;;;4981306;28;20536;-53
2023/06/17 10:16:34;;;;;;;5.00;3.65;;;37.70;29.30;;;;;;4979118;28;20593;-52
2023/06/17 10:19:05;;;;;;;2.72;2.47;;;35.20;9.20;;;;;;4981740;28;20227;-53
2023/06/17 10:21:35;;;;;;;7.15;3.10;;;35.70;13.70;;;;;;4990369;28;20207;-53
2023/06/17 10:24:04;;;;;;;2.35;2.15;;;36.70;14.80;;;;;;4978032;28;20200;-52
2023/06/17 10:26:31;;;;;;;3.22;2.80;;;36.40;13.80;;;;;;4984145;28;20212;-52
2023/06/17 10:29:02;;;;;;;4.65;2.92;;;36.10;13.90;;;;;;4982910;28;20264;-53
2023/06/17 10:31:30;;;;;;;7.72;5.85;;;36.10;13.90;;;;;;4987509;28;20197;-52
2023/06/17 10:34:01;;;;;;;6.25;4.53;;;35.70;12.50;;;;;;4984938;28;20251;-53
2023/06/17 10:36:28;;;;;;;5.35;4.80;;;35.70;14.80;;;;;;4976758;28;20197;-52
2023/06/17 10:39:04;;;;;;;6.10;4.57;;;35.10;12.20;;;;;;4980158;28;20197;-53
2023/06/17 10:41:40;;;;;;;5.30;4.40;;;36.10;29.80;;;;;;4984316;28;20275;-53
2023/06/17 10:44:26;;;;;;;7.03;3.17;;;35.70;11.30;;;;;;4983675;28;20229;-52
2023/06/17 10:46:55;;;;;;;5.70;2.78;;;35.50;13.10;;;;;;4998912;28;20231;-52
2023/06/17 10:49:22;;;;;;;4.95;3.08;;;35.60;10.90;;;;;;4995337;28;20236;-53
2023/06/17 10:51:51;;;;;;;6.00;3.30;;;36.50;12.90;;;;;;4982992;28;20197;-53
2023/06/17 10:54:33;;;;;;;6.78;3.20;;;36.10;10.40;;;;;;4983137;28;20193;-53
2023/06/17 10:57:01;;;;;;;5.28;4.05;;;34.50;12.70;;;;;;4985262;28;20193;-52
2023/06/17 10:59:31;;;;;;;2.78;2.42;;;35.00;13.60;;;;;;4986526;28;20336;-52
2023/06/17 11:02:02;;;;;;;3.92;3.50;;;35.10;11.10;;;;;;4987186;28;20197;-53
2023/06/17 11:04:30;;;;;;;4.47;2.65;;;35.60;12.10;;;;;;4980901;28;20696;-53
2023/06/17 11:07:02;;;;;;;2.50;2.30;;;35.70;12.50;;;;;;4973414;28;21189;-53
2023/06/17 11:09:32;;;;;;;3.28;2.72;;;36.30;11.50;;;;;;4984024;28;20616;-53
2023/06/17 11:12:02;;;;;;;4.05;2.58;;;35.20;10.20;;;;;;4981877;28;20669;-52
2023/06/17 11:14:30;;;;;;;6.18;2.60;;;35.20;10.90;;;;;;4994910;28;20685;-52
2023/06/17 11:16:57;;;;;;;3.25;2.95;;;35.20;11.60;;;;;;4986882;28;20716;-52
2023/06/17 11:19:25;;;;;;;3.50;2.70;;;34.70;10.60;;;;;;4982210;28;20265;-53
2023/06/17 11:22:03;;;;;;;3.83;2.70;;;35.70;10.60;;;;;;4978765;28;20676;-52
2023/06/17 11:24:31;;;;;;;5.20;2.70;;;35.10;11.70;;;;;;4983054;28;20703;-52
2023/06/17 11:27:00;;;;;;;4.47;2.78;;;35.10;11.10;;;;;;4975250;28;20696;-53
2023/06/17 11:29:29;;;;;;;3.72;2.50;;;35.10;11.60;;;;;;4978961;28;20221;-53
2023/06/17 11:32:00;;;;;;;2.60;2.40;;;34.20;11.50;;;;;;4980442;28;20249;-53
2023/06/17 11:34:31;;;;;;;2.83;2.40;;;34.60;11.80;;;;;;4982029;28;20202;-52
2023/06/17 11:37:00;;;;;;;4.18;2.97;;;34.80;12.40;;;;;;4981570;28;20199;-52
2023/06/17 11:39:31;;;;;;;3.10;2.40;;;34.80;11.80;;;;;;4980527;28;20304;-53
2023/06/17 11:42:01;;;;;;;4.38;2.83;;;34.30;10.60;;;;;;4984793;28;20197;-53
2023/06/17 11:44:32;;;;;;;4.20;3.60;;;33.70;12.20;;;;;;4981297;28;20213;-52
2023/06/17 11:47:08;;;;;;;2.70;2.50;;;33.70;13.30;;;;;;4982698;28;20928;-52
2023/06/17 11:49:40;;;;;;;4.18;3.63;;;33.70;10.20;;;;;;4984986;28;20324;-56
2023/06/17 11:52:11;;;;;;;4.03;3.38;;;34.40;11.10;;;;;;4984361;28;20276;-52
2023/06/17 11:54:48;;;;;;;4.38;3.05;;;33.90;11.30;;;;;;4984823;28;20197;-55
2023/06/17 11:57:26;;;;;;;6.25;3.17;;;33.20;12.30;;;;;;4985137;28;20197;-53
2023/06/17 12:00:04;;;;;;;4.40;2.70;;;33.40;11.90;;;;;;4982726;28;20833;-54
2023/06/17 12:02:38;;;;;;;3.17;2.78;;;32.70;11.50;;;;;;4985469;28;20552;-54
2023/06/17 12:05:06;;;;;;;5.57;3.40;;;34.00;11.00;;;;;;4977276;28;20237;-55
2023/06/17 12:07:39;;;;;;;4.20;2.90;;;34.00;10.70;;;;;;4980414;28;20214;-53
2023/06/17 12:10:07;;;;;;;3.35;2.67;;;34.20;10.80;;;;;;4981414;28;20198;-54
2023/06/17 12:12:36;;;;;;;4.68;3.03;;;34.20;10.60;;;;;;4983235;28;20197;-54
2023/06/17 12:15:08;;;;;;;5.72;2.85;;;33.90;11.20;;;;;;4981318;28;20193;-54
2023/06/17 12:17:45;;;;;;;3.60;2.67;;;33.60;11.20;;;;;;4984125;28;20673;-53
2023/06/17 12:20:17;;;;;;;2.63;2.42;;;33.50;11.50;;;;;;4983121;28;20841;-54
2023/06/17 12:22:46;;;;;;;3.33;2.70;;;32.90;27.30;;;;;;4984519;28;20778;-53
2023/06/17 12:25:13;;;;;;;3.67;2.70;;;32.70;10.70;;;;;;4982525;28;20208;-53
2023/06/17 12:27:42;;;;;;;3.38;2.90;;;32.80;12.30;;;;;;4984810;28;20282;-54
2023/06/17 12:30:10;;;;;;;3.83;2.75;;;33.10;11.00;;;;;;4979320;28;20288;-53
2023/06/17 12:32:42;;;;;;;4.68;3.30;;;32.50;11.50;;;;;;4983325;28;20204;-55
2023/06/17 12:35:11;;;;;;;3.17;2.88;;;32.50;12.00;;;;;;4984391;28;20285;-54
2023/06/17 12:37:41;;;;;;;4.57;2.92;;;33.20;12.40;;;;;;4984128;28;20194;-53
2023/06/17 12:40:09;;;;;;;3.25;2.47;;;33.10;11.30;;;;;;4982790;28;20558;-53
2023/06/17 12:42:36;;;;;;;4.85;2.92;;;32.80;12.50;;;;;;4982708;28;20209;-54
2023/06/17 12:45:06;;;;;;;4.05;3.30;;;32.50;12.40;;;;;;4983019;28;20206;-53
2023/06/17 12:47:33;;;;;;;3.50;2.85;;;31.90;12.50;;;;;;4980089;28;20194;-53
2023/06/17 12:50:01;;;;;;;5.30;2.92;;;31.90;14.30;;;;;;4978584;28;20285;-53
2023/06/17 12:52:28;;;;;;;6.40;2.72;;;32.00;13.40;;;;;;4979835;28;20248;-53
2023/06/17 12:54:59;;;;;;;3.58;3.00;;;31.80;13.30;;;;;;4981532;28;20297;-53